createdAt,value
2022-10-02T00:04:46.102Z,12.33
2022-10-02T00:07:39.452Z,12.33
2022-10-02T00:11:03.813Z,12.33
2022-10-02T00:14:12.644Z,12.33
2022-10-02T00:17:14.811Z,12.32
2022-10-02T00:20:26.931Z,12.31
2022-10-02T00:23:16.428Z,12.31
2022-10-02T00:26:22.528Z,12.31
2022-10-02T00:29:14.844Z,12.31
2022-10-02T00:32:27.802Z,12.30
2022-10-02T00:35:24.663Z,12.29
2022-10-02T00:38:30.528Z,12.28
2022-10-02T00:41:50.754Z,12.28
2022-10-02T00:44:52.187Z,12.27
2022-10-02T00:47:46.887Z,12.26
2022-10-02T00:50:37.746Z,12.24
2022-10-02T00:53:33.584Z,12.21
2022-10-02T00:56:47.627Z,12.18
2022-10-02T00:59:58.063Z,12.13
2022-10-02T01:03:03.532Z,12.09
2022-10-02T01:10:15.649Z,12.00
2022-10-02T01:13:22.553Z,11.97
2022-10-02T01:20:53.118Z,11.87
2022-10-02T01:28:27.568Z,11.78
2022-10-02T01:31:36.238Z,11.75
2022-10-02T01:35:22.641Z,11.73
2022-10-02T01:38:14.706Z,11.70
2022-10-02T01:41:23.304Z,11.68
2022-10-02T01:44:46.690Z,11.66
2022-10-02T01:52:05.739Z,11.59
2022-10-02T01:55:19.797Z,11.56
2022-10-02T01:58:35.857Z,11.53
2022-10-02T02:05:47.591Z,11.47
2022-10-02T02:09:31.341Z,11.46
2022-10-02T02:12:41.792Z,11.44
2022-10-02T02:16:06.107Z,11.43
2022-10-02T02:19:36.587Z,11.42
2022-10-02T02:22:27.889Z,11.41
2022-10-02T02:25:39.183Z,11.39
2022-10-02T02:28:49.293Z,11.36
2022-10-02T02:32:21.418Z,11.34
2022-10-02T02:35:35.791Z,11.32
2022-10-02T02:38:27.227Z,11.30
2022-10-02T02:41:33.067Z,11.28
2022-10-02T02:45:01.052Z,11.26
2022-10-02T02:48:26.599Z,11.24
2022-10-02T02:55:29.463Z,11.20
2022-10-02T02:58:27.204Z,11.19
2022-10-02T03:06:04.044Z,11.18
2022-10-02T03:09:13.429Z,11.16
2022-10-02T03:13:05.926Z,11.15
2022-10-02T03:16:18.916Z,11.15
2022-10-02T03:19:34.548Z,11.12
2022-10-02T03:22:28.720Z,11.10
2022-10-02T03:25:31.698Z,11.08
2022-10-02T03:33:00.463Z,11.02
2022-10-02T03:36:27.326Z,11.00
2022-10-02T03:39:25.121Z,10.95
2022-10-02T03:42:24.981Z,10.93
2022-10-02T03:45:32.708Z,10.90
2022-10-02T03:48:21.345Z,10.86
2022-10-02T03:51:30.626Z,10.82
2022-10-02T03:54:39.504Z,10.80
2022-10-02T03:57:47.774Z,10.77
2022-10-02T04:00:58.961Z,10.75
2022-10-02T04:04:09.986Z,10.72
2022-10-02T04:07:24.714Z,10.69
2022-10-02T04:10:36.836Z,10.67
2022-10-02T04:13:47.887Z,10.65
2022-10-02T04:17:01.565Z,10.63
2022-10-02T04:19:54.783Z,10.62
2022-10-02T04:23:19.093Z,10.61
2022-10-02T04:27:16.066Z,10.59
2022-10-02T04:31:00.493Z,10.58
2022-10-02T04:34:32.309Z,10.57
2022-10-02T04:38:00.564Z,10.60
2022-10-02T04:41:18.541Z,10.64
2022-10-02T04:45:04.035Z,10.69
2022-10-02T04:48:24.195Z,10.76
2022-10-02T04:51:20.256Z,10.79
2022-10-02T04:54:37.368Z,10.83
2022-10-02T04:57:46.872Z,10.86
2022-10-02T05:00:59.593Z,10.89
2022-10-02T05:03:48.431Z,10.91
2022-10-02T05:07:08.423Z,10.94
2022-10-02T05:14:39.427Z,10.97
2022-10-02T05:18:42.249Z,10.96
2022-10-02T05:21:59.807Z,10.93
2022-10-02T05:24:57.638Z,10.88
2022-10-02T05:28:16.556Z,10.82
2022-10-02T05:31:05.543Z,10.77
2022-10-02T05:34:19.657Z,10.69
2022-10-02T05:37:45.693Z,10.62
2022-10-02T05:41:00.718Z,10.55
2022-10-02T05:44:12.645Z,10.50
2022-10-02T05:47:25.197Z,10.44
2022-10-02T05:50:35.568Z,10.40
2022-10-02T05:53:45.575Z,10.34
2022-10-02T06:01:00.759Z,10.21
2022-10-02T06:08:15.439Z,10.13
2022-10-02T06:11:26.852Z,10.12
2022-10-02T06:14:35.840Z,10.10
2022-10-02T06:22:22.577Z,10.04
2022-10-02T06:25:48.542Z,10.01
2022-10-02T06:29:34.066Z,10.00
2022-10-02T06:32:46.984Z,10.01
2022-10-02T06:36:13.718Z,10.02
2022-10-02T06:48:02.048Z,10.20
2022-10-02T06:56:15.095Z,10.38
2022-10-02T06:59:31.240Z,10.48
2022-10-02T07:03:05.490Z,10.55
2022-10-02T07:10:22.894Z,10.69
2022-10-02T07:13:42.821Z,10.76
2022-10-02T07:20:58.351Z,10.88
2022-10-02T07:24:14.713Z,10.94
2022-10-02T07:31:21.181Z,11.10
2022-10-02T07:34:23.279Z,11.15
2022-10-02T07:41:37.574Z,11.39
2022-10-02T07:44:39.863Z,11.64
2022-10-02T07:48:00.225Z,12.02
2022-10-02T07:51:44.686Z,12.58
2022-10-02T07:54:58.739Z,12.89
2022-10-02T07:57:34.237Z,13.07
2022-10-02T08:00:30.139Z,13.47
2022-10-02T08:03:58.783Z,13.96
2022-10-02T08:07:08.056Z,14.00
2022-10-02T08:10:07.044Z,14.00
2022-10-02T08:13:04.488Z,14.11
2022-10-02T08:15:47.449Z,14.25
2022-10-02T08:18:38.529Z,14.53
2022-10-02T08:21:49.308Z,14.87
2022-10-02T08:24:41.007Z,15.82
2022-10-02T08:27:21.667Z,17.43
2022-10-02T08:29:53.205Z,18.18
2022-10-02T08:32:22.586Z,18.05
2022-10-02T08:34:54.054Z,18.02
2022-10-02T08:37:28.929Z,18.07
2022-10-02T08:40:24.444Z,17.56
2022-10-02T08:43:18.951Z,17.07
2022-10-02T08:46:34.959Z,16.74
2022-10-02T08:49:31.980Z,16.53
2022-10-02T08:52:10.494Z,17.00
2022-10-02T08:54:54.967Z,18.40
2022-10-02T08:57:36.100Z,20.68
2022-10-02T09:00:13.914Z,22.70
2022-10-02T09:03:04.427Z,24.46
2022-10-02T09:05:46.391Z,25.81
2022-10-02T09:08:32.839Z,27.03
2022-10-02T09:11:47.697Z,28.29
2022-10-02T09:14:44.479Z,28.85
2022-10-02T09:17:43.251Z,29.84
2022-10-02T09:20:30.942Z,30.69
2022-10-02T09:23:12.840Z,31.37
2022-10-02T09:25:45.226Z,31.81
2022-10-02T09:28:47.604Z,32.22
2022-10-02T09:31:44.183Z,31.73
2022-10-02T09:34:30.022Z,30.56
2022-10-02T09:37:37.576Z,30.59
2022-10-02T09:40:26.294Z,29.18
2022-10-02T09:43:37.363Z,27.89
2022-10-02T09:46:21.905Z,28.27
2022-10-02T09:49:08.649Z,27.65
2022-10-02T09:51:58.492Z,26.67
2022-10-02T09:54:44.243Z,25.55
2022-10-02T09:57:31.258Z,24.73
2022-10-02T10:00:12.743Z,24.45
2022-10-02T10:02:57.447Z,24.08
2022-10-02T10:05:38.903Z,23.72
2022-10-02T10:08:23.906Z,23.29
2022-10-02T10:11:02.092Z,22.87
2022-10-02T10:13:42.003Z,22.60
2022-10-02T10:16:28.001Z,22.26
2022-10-02T10:19:15.996Z,21.84
2022-10-02T10:21:57.956Z,21.45
2022-10-02T10:24:46.138Z,21.42
2022-10-02T10:27:29.873Z,21.60
2022-10-02T10:30:10.629Z,21.83
2022-10-02T10:33:01.269Z,22.08
2022-10-02T10:35:46.472Z,22.48
2022-10-02T10:38:38.337Z,22.66
2022-10-02T10:41:21.016Z,22.97
2022-10-02T10:44:17.795Z,23.25
2022-10-02T10:46:59.591Z,23.51
2022-10-02T10:49:45.585Z,24.09
2022-10-02T10:52:22.311Z,24.53
2022-10-02T10:54:54.894Z,25.36
2022-10-02T10:57:33.149Z,26.73
2022-10-02T11:00:11.338Z,28.75
2022-10-02T11:02:54.245Z,30.90
2022-10-02T11:05:42.022Z,32.43
2022-10-02T11:08:24.716Z,33.67
2022-10-02T11:10:59.106Z,34.78
2022-10-02T11:13:34.786Z,35.05
2022-10-02T11:16:22.833Z,35.64
2022-10-02T11:19:07.339Z,36.05
2022-10-02T11:21:40.830Z,35.25
2022-10-02T11:24:22.779Z,32.46
2022-10-02T11:27:07.745Z,32.17
2022-10-02T11:29:48.499Z,29.93
2022-10-02T11:32:33.396Z,31.21
2022-10-02T11:35:22.939Z,33.02
2022-10-02T11:38:09.150Z,34.74
2022-10-02T11:40:55.375Z,35.96
2022-10-02T11:43:43.903Z,35.10
2022-10-02T11:46:36.594Z,32.26
2022-10-02T11:49:33.928Z,31.72
2022-10-02T11:52:27.910Z,31.17
2022-10-02T11:55:04.758Z,28.89
2022-10-02T11:57:41.440Z,28.55
2022-10-02T12:00:13.758Z,28.85
2022-10-02T12:02:48.417Z,27.01
2022-10-02T12:05:36.836Z,25.59
2022-10-02T12:08:09.167Z,26.91
2022-10-02T12:10:42.155Z,29.22
2022-10-02T12:13:26.800Z,30.84
2022-10-02T12:15:58.597Z,32.78
2022-10-02T12:18:33.096Z,34.62
2022-10-02T12:21:26.053Z,35.82
2022-10-02T12:24:13.874Z,34.23
2022-10-02T12:27:06.099Z,32.66
2022-10-02T12:29:44.010Z,33.86
2022-10-02T12:32:17.963Z,34.39
2022-10-02T12:34:56.788Z,34.18
2022-10-02T12:37:29.956Z,32.31
2022-10-02T12:40:02.784Z,33.59
2022-10-02T12:43:03.002Z,35.01
2022-10-02T12:45:51.012Z,35.97
2022-10-02T12:48:30.153Z,35.92
2022-10-02T12:51:12.518Z,35.50
2022-10-02T12:54:05.722Z,34.51
2022-10-02T12:56:57.609Z,34.59
2022-10-02T12:59:43.169Z,32.23
2022-10-02T13:02:49.076Z,30.12
2022-10-02T13:05:31.825Z,29.57
2022-10-02T13:08:19.348Z,28.45
2022-10-02T13:10:49.980Z,27.01
2022-10-02T13:13:35.119Z,25.63
2022-10-02T13:16:06.175Z,24.35
2022-10-02T13:18:52.248Z,23.54
2022-10-02T13:21:24.622Z,22.95
2022-10-02T13:24:01.186Z,22.27
2022-10-02T13:26:33.447Z,21.64
2022-10-02T13:29:13.439Z,21.14
2022-10-02T13:31:46.953Z,20.85
2022-10-02T13:34:24.893Z,20.64
2022-10-02T13:37:02.032Z,20.39
2022-10-02T13:39:35.979Z,20.22
2022-10-02T13:42:17.631Z,19.96
2022-10-02T13:44:51.728Z,19.84
2022-10-02T13:47:32.724Z,19.75
2022-10-02T13:50:07.270Z,19.72
2022-10-02T13:52:41.659Z,19.81
2022-10-02T13:55:16.598Z,19.93
2022-10-02T13:57:53.629Z,20.01
2022-10-02T14:00:41.004Z,20.10
2022-10-02T14:03:15.655Z,20.74
2022-10-02T14:05:54.477Z,21.55
2022-10-02T14:08:39.149Z,21.59
2022-10-02T14:11:16.152Z,21.40
2022-10-02T14:13:53.070Z,21.21
2022-10-02T14:16:28.406Z,20.96
2022-10-02T14:19:14.301Z,20.70
2022-10-02T14:21:48.041Z,20.36
2022-10-02T14:24:52.288Z,20.16
2022-10-02T14:27:43.603Z,19.92
2022-10-02T14:30:12.902Z,19.65
2022-10-02T14:32:53.394Z,19.42
2022-10-02T14:35:38.376Z,19.22
2022-10-02T14:38:41.514Z,19.01
2022-10-02T14:41:18.346Z,18.82
2022-10-02T14:44:06.896Z,18.70
2022-10-02T14:46:57.381Z,18.61
2022-10-02T14:49:31.543Z,18.55
2022-10-02T14:52:53.086Z,18.48
2022-10-02T14:55:30.436Z,18.37
2022-10-02T14:58:12.343Z,18.28
2022-10-02T15:00:43.119Z,18.17
2022-10-02T15:03:24.753Z,18.07
2022-10-02T15:06:20.473Z,18.01
2022-10-02T15:08:54.859Z,17.97
2022-10-02T15:11:46.944Z,17.96
2022-10-02T15:14:18.993Z,17.93
2022-10-02T15:17:05.949Z,17.91
2022-10-02T15:19:41.481Z,17.90
2022-10-02T15:22:18.993Z,17.90
2022-10-02T15:24:48.678Z,17.86
2022-10-02T15:27:21.762Z,17.81
2022-10-02T15:29:59.265Z,17.75
2022-10-02T15:32:41.058Z,17.67
2022-10-02T15:35:19.328Z,17.61
2022-10-02T15:37:53.124Z,17.59
2022-10-02T15:40:27.254Z,17.57
2022-10-02T15:42:58.596Z,17.54
2022-10-02T15:45:49.248Z,17.53
2022-10-02T15:48:37.610Z,17.51
2022-10-02T15:51:11.792Z,17.49
2022-10-02T15:53:55.563Z,17.48
2022-10-02T15:56:32.778Z,17.42
2022-10-02T15:59:18.394Z,17.38
2022-10-02T16:01:54.600Z,17.36
2022-10-02T16:04:44.179Z,17.35
2022-10-02T16:07:24.127Z,17.26
2022-10-02T16:09:57.513Z,17.23
2022-10-02T16:12:33.690Z,17.21
2022-10-02T16:15:38.437Z,17.16
2022-10-02T16:18:32.855Z,17.10
2022-10-02T16:21:15.096Z,17.07
2022-10-02T16:24:03.920Z,17.07
2022-10-02T16:27:02.510Z,17.03
2022-10-02T16:29:34.179Z,16.96
2022-10-02T16:32:20.786Z,16.95
2022-10-02T16:35:04.282Z,16.93
2022-10-02T16:37:36.523Z,16.92
2022-10-02T16:40:20.315Z,16.88
2022-10-02T16:42:52.284Z,16.83
2022-10-02T16:45:52.459Z,16.78
2022-10-02T16:48:23.984Z,16.77
2022-10-02T16:51:04.966Z,16.76
2022-10-02T16:53:42.118Z,16.75
2022-10-02T16:56:44.397Z,16.68
2022-10-02T16:59:17.209Z,16.61
2022-10-02T17:02:18.590Z,16.56
2022-10-02T17:05:02.584Z,16.51
2022-10-02T17:07:39.878Z,16.47
2022-10-02T17:10:22.622Z,16.39
2022-10-02T17:13:28.444Z,16.31
2022-10-02T17:16:00.397Z,16.21
2022-10-02T17:18:34.811Z,16.16
2022-10-02T17:21:20.338Z,16.11
2022-10-02T17:24:25.538Z,16.06
2022-10-02T17:27:03.041Z,16.01
2022-10-02T17:29:44.785Z,15.98
2022-10-02T17:32:40.776Z,15.96
2022-10-02T17:35:31.706Z,15.94
2022-10-02T17:38:35.022Z,15.90
2022-10-02T17:41:48.314Z,15.86
2022-10-02T17:44:35.842Z,15.80
2022-10-02T17:48:01.241Z,15.75
2022-10-02T17:51:23.291Z,15.70
2022-10-02T17:54:25.699Z,15.64
2022-10-02T17:58:05.469Z,15.61
2022-10-02T18:01:06.435Z,15.57
2022-10-02T18:03:48.532Z,15.56
2022-10-02T18:06:28.148Z,15.55
2022-10-02T18:09:37.723Z,15.51
2022-10-02T18:12:13.589Z,15.48
2022-10-02T18:15:01.486Z,15.46
2022-10-02T18:17:41.814Z,15.45
2022-10-02T18:23:32.380Z,15.42
2022-10-02T18:26:30.830Z,15.42
2022-10-02T18:29:26.666Z,15.41
2022-10-02T18:32:08.268Z,15.39
2022-10-02T18:35:03.468Z,15.38
2022-10-02T18:37:44.705Z,15.38
2022-10-02T18:40:21.747Z,15.39
2022-10-02T18:43:06.444Z,15.37
2022-10-02T18:46:04.010Z,15.36
2022-10-02T18:49:00.168Z,15.37
2022-10-02T18:51:54.396Z,15.37
2022-10-02T18:54:34.132Z,15.36
2022-10-02T18:57:17.647Z,15.33
2022-10-02T19:00:13.714Z,15.32
2022-10-02T19:03:00.149Z,15.29
2022-10-02T19:05:38.996Z,15.27
2022-10-02T19:08:18.125Z,15.26
2022-10-02T19:10:47.645Z,15.26
2022-10-02T19:13:27.437Z,15.25
2022-10-02T19:15:57.652Z,15.24
2022-10-02T19:19:06.168Z,15.23
2022-10-02T19:21:36.679Z,15.22
2022-10-02T19:24:42.564Z,15.23
2022-10-02T19:27:17.678Z,15.22
2022-10-02T19:29:49.360Z,15.23
2022-10-02T19:32:22.602Z,15.22
2022-10-02T19:34:56.052Z,15.21
2022-10-02T19:37:27.485Z,15.21
2022-10-02T19:40:03.769Z,15.20
2022-10-02T19:42:44.694Z,15.21
2022-10-02T19:45:34.384Z,15.19
2022-10-02T19:48:43.949Z,15.17
2022-10-02T19:51:17.508Z,15.15
2022-10-02T19:53:50.228Z,15.14
2022-10-02T19:57:04.147Z,15.15
2022-10-02T19:59:47.356Z,15.13
2022-10-02T20:02:23.626Z,15.11
2022-10-02T20:05:17.186Z,15.08
2022-10-02T20:08:17.705Z,15.07
2022-10-02T20:11:09.377Z,15.05
2022-10-02T20:13:45.003Z,15.03
2022-10-02T20:16:36.306Z,15.00
2022-10-02T20:19:27.835Z,14.97
2022-10-02T20:22:30.544Z,14.97
2022-10-02T20:25:28.899Z,14.95
2022-10-02T20:28:21.548Z,14.94
2022-10-02T20:31:36.574Z,14.93
2022-10-02T20:34:42.285Z,14.93
2022-10-02T20:37:13.422Z,14.93
2022-10-02T20:39:50.524Z,14.92
2022-10-02T20:42:53.026Z,14.92
2022-10-02T20:45:23.619Z,14.91
2022-10-02T20:48:43.574Z,14.90
2022-10-02T20:51:24.882Z,14.87
2022-10-02T20:54:23.613Z,14.85
2022-10-02T20:57:04.101Z,14.82
2022-10-02T21:00:04.097Z,14.82
2022-10-02T21:02:47.793Z,14.81
2022-10-02T21:05:31.842Z,14.79
2022-10-02T21:08:14.145Z,14.78
2022-10-02T21:10:58.819Z,14.77
2022-10-02T21:13:51.256Z,14.76
2022-10-02T21:17:17.183Z,14.75
2022-10-02T21:20:27.786Z,14.72
2022-10-02T21:27:53.760Z,14.69
2022-10-02T21:31:10.988Z,14.68
2022-10-02T21:34:10.015Z,14.69
2022-10-02T21:36:58.536Z,14.69
2022-10-02T21:40:13.888Z,14.69
2022-10-02T21:43:42.315Z,14.67
2022-10-02T21:47:13.546Z,14.65
2022-10-02T21:50:07.790Z,14.64
2022-10-02T21:53:12.609Z,14.62
2022-10-02T21:56:31.026Z,14.61
2022-10-02T21:59:31.817Z,14.59
2022-10-02T22:03:01.112Z,14.57
2022-10-02T22:06:04.724Z,14.55
2022-10-02T22:08:57.616Z,14.53
2022-10-02T22:11:55.049Z,14.51
2022-10-02T22:15:09.842Z,14.49
2022-10-02T22:17:59.711Z,14.47
2022-10-02T22:21:13.811Z,14.46
2022-10-02T22:24:17.205Z,14.45
2022-10-02T22:27:11.214Z,14.44
2022-10-02T22:29:55.537Z,14.42
2022-10-02T22:33:17.242Z,14.40
2022-10-02T22:36:07.089Z,14.38
2022-10-02T22:38:51.259Z,14.37
2022-10-02T22:41:53.568Z,14.35
2022-10-02T22:44:42.818Z,14.35
2022-10-02T22:47:46.701Z,14.35
2022-10-02T22:50:25.125Z,14.34
2022-10-02T22:53:27.868Z,14.32
2022-10-02T22:56:29.780Z,14.30
2022-10-02T22:59:40.907Z,14.27
2022-10-02T23:02:32.220Z,14.25
2022-10-02T23:05:46.288Z,14.22
2022-10-02T23:08:39.676Z,14.18
2022-10-02T23:11:30.630Z,14.17
2022-10-02T23:14:26.409Z,14.15
2022-10-02T23:17:21.129Z,14.13
2022-10-02T23:20:15.858Z,14.10
2022-10-02T23:23:01.617Z,14.07
2022-10-02T23:25:56.605Z,14.04
2022-10-02T23:28:53.204Z,14.03
2022-10-02T23:32:07.144Z,14.01
2022-10-02T23:35:03.114Z,13.98
2022-10-02T23:37:38.104Z,13.97
2022-10-02T23:41:20.572Z,13.96
2022-10-02T23:44:16.923Z,13.95
2022-10-02T23:47:16.542Z,13.94
2022-10-02T23:49:50.200Z,13.94
2022-10-02T23:53:24.148Z,13.95
2022-10-02T23:56:43.778Z,13.94
2022-10-02T23:59:39.370Z,13.94
